createdAt,value
2022-12-08T00:01:09.366Z,87.68
2022-12-08T00:04:16.830Z,75.35
2022-12-08T00:07:42.069Z,74.32
2022-12-08T00:10:50.216Z,59.53
2022-12-08T00:13:57.437Z,47.35
2022-12-08T00:17:05.212Z,63.88
2022-12-08T00:20:12.554Z,68.25
2022-12-08T00:23:19.501Z,58.78
2022-12-08T00:26:26.345Z,76.68
2022-12-08T00:29:32.545Z,51.72
2022-12-08T00:32:39.584Z,73.05
2022-12-08T00:35:46.187Z,56.13
2022-12-08T00:38:53.104Z,76.38
2022-12-08T00:42:14.383Z,57.35
2022-12-08T00:45:22.352Z,51.75
2022-12-08T00:48:28.316Z,105.57
2022-12-08T00:51:35.109Z,62.53
2022-12-08T00:54:41.375Z,52.30
2022-12-08T00:57:47.607Z,53.85
2022-12-08T01:00:53.866Z,66.13
2022-12-08T01:04:07.584Z,54.83
2022-12-08T01:07:14.077Z,98.63
2022-12-08T01:10:20.966Z,80.38
2022-12-08T01:13:27.108Z,79.65
2022-12-08T01:16:36.062Z,58.22
2022-12-08T01:19:42.007Z,44.33
2022-12-08T01:22:48.490Z,64.38
2022-12-08T01:25:55.514Z,70.82
2022-12-08T01:29:01.834Z,75.18
2022-12-08T01:32:09.897Z,59.05
2022-12-08T01:35:16.934Z,48.88
2022-12-08T01:38:23.763Z,45.95
2022-12-08T01:41:33.584Z,53.03
2022-12-08T01:44:40.208Z,41.83
2022-12-08T01:47:49.581Z,28.40
2022-12-08T01:50:57.350Z,32.65
2022-12-08T01:54:06.528Z,28.23
2022-12-08T01:57:23.275Z,28.83
2022-12-08T02:00:30.227Z,31.45
2022-12-08T02:03:44.864Z,26.50
2022-12-08T02:06:52.683Z,29.15
2022-12-08T02:09:59.305Z,47.15
2022-12-08T02:13:10.053Z,34.15
2022-12-08T02:16:38.877Z,26.02
2022-12-08T02:20:06.249Z,36.03
2022-12-08T02:23:26.714Z,41.67
2022-12-08T02:26:53.609Z,40.30
2022-12-08T02:29:59.795Z,65.35
2022-12-08T02:33:33.332Z,73.03
2022-12-08T02:36:56.161Z,66.40
2022-12-08T02:40:22.237Z,53.67
2022-12-08T02:43:37.286Z,84.05
2022-12-08T02:46:59.797Z,54.03
2022-12-08T02:50:07.427Z,48.13
2022-12-08T02:56:52.965Z,49.13
2022-12-08T03:00:11.696Z,80.70
2022-12-08T03:03:26.550Z,55.95
2022-12-08T03:06:32.593Z,70.18
2022-12-08T03:10:09.026Z,74.15
2022-12-08T03:13:57.217Z,47.40
2022-12-08T03:17:05.135Z,58.35
2022-12-08T03:20:15.945Z,49.30
2022-12-08T03:23:25.220Z,50.85
2022-12-08T03:26:55.200Z,54.13
2022-12-08T03:30:02.840Z,97.78
2022-12-08T03:33:21.250Z,59.80
2022-12-08T03:36:27.901Z,63.90
2022-12-08T03:39:34.339Z,30.63
2022-12-08T03:42:40.119Z,27.38
2022-12-08T03:45:46.463Z,52.25
2022-12-08T03:48:53.112Z,28.38
2022-12-08T03:51:59.697Z,56.60
2022-12-08T03:55:06.879Z,40.83
2022-12-08T03:58:13.223Z,71.90
2022-12-08T04:01:19.692Z,36.90
2022-12-08T04:04:26.983Z,54.58
2022-12-08T04:07:34.142Z,38.75
2022-12-08T04:10:41.947Z,37.42
2022-12-08T04:13:49.021Z,48.60
2022-12-08T04:16:55.272Z,43.45
2022-12-08T04:20:01.952Z,32.97
2022-12-08T04:23:10.305Z,42.33
2022-12-08T04:26:18.304Z,48.15
2022-12-08T04:29:24.355Z,36.03
2022-12-08T04:32:30.823Z,57.38
2022-12-08T04:35:36.981Z,39.03
2022-12-08T04:38:43.632Z,53.70
2022-12-08T04:41:50.187Z,35.85
2022-12-08T04:44:56.663Z,105.70
2022-12-08T04:48:03.330Z,35.10
2022-12-08T04:51:19.097Z,59.10
2022-12-08T04:54:25.241Z,24.85
2022-12-08T04:57:32.799Z,31.00
2022-12-08T05:00:39.621Z,30.02
2022-12-08T05:03:45.821Z,69.43
2022-12-08T05:06:52.348Z,34.05
2022-12-08T05:09:58.743Z,43.92
2022-12-08T05:13:05.695Z,47.72
2022-12-08T05:16:15.099Z,29.88
2022-12-08T05:19:21.946Z,36.15
2022-12-08T05:22:29.036Z,26.20
2022-12-08T05:25:36.070Z,27.35
2022-12-08T05:28:43.640Z,26.90
2022-12-08T05:31:51.544Z,23.90
2022-12-08T05:34:58.556Z,28.75
2022-12-08T05:38:06.289Z,25.13
2022-12-08T05:41:16.422Z,31.60
2022-12-08T05:44:23.335Z,22.02
2022-12-08T05:47:34.532Z,21.92
2022-12-08T05:50:49.704Z,23.90
2022-12-08T05:53:57.805Z,25.48
2022-12-08T05:57:04.846Z,30.20
2022-12-08T06:00:11.658Z,23.70
2022-12-08T06:03:20.307Z,31.17
2022-12-08T06:06:27.433Z,27.42
2022-12-08T06:09:33.549Z,23.95
2022-12-08T06:12:40.918Z,21.70
2022-12-08T06:15:48.078Z,21.13
2022-12-08T06:18:54.981Z,20.95
2022-12-08T06:22:01.580Z,26.65
2022-12-08T06:25:10.191Z,20.45
2022-12-08T06:28:18.098Z,24.08
2022-12-08T06:31:27.945Z,18.77
2022-12-08T06:34:35.162Z,20.48
2022-12-08T06:37:42.042Z,20.55
2022-12-08T06:40:58.515Z,18.95
2022-12-08T06:44:07.570Z,20.73
2022-12-08T06:47:14.715Z,17.92
2022-12-08T06:50:23.127Z,20.00
2022-12-08T06:53:31.339Z,19.63
2022-12-08T06:56:39.436Z,19.88
2022-12-08T06:59:47.375Z,18.73
2022-12-08T07:02:54.111Z,20.80
2022-12-08T07:06:04.129Z,24.25
2022-12-08T07:09:44.744Z,20.27
2022-12-08T07:13:10.180Z,23.95
2022-12-08T07:16:16.804Z,25.23
2022-12-08T07:19:25.083Z,22.27
2022-12-08T07:22:33.277Z,22.80
2022-12-08T07:25:40.291Z,23.20
2022-12-08T07:28:48.536Z,22.08
2022-12-08T07:31:55.912Z,24.52
2022-12-08T07:35:03.091Z,25.20
2022-12-08T07:38:12.924Z,23.88
2022-12-08T07:41:23.656Z,21.58
2022-12-08T07:44:35.491Z,25.53
2022-12-08T07:48:07.076Z,23.85
2022-12-08T07:51:30.992Z,19.80
2022-12-08T07:55:37.364Z,22.00
2022-12-08T07:58:57.104Z,23.75
2022-12-08T08:02:23.425Z,26.63
2022-12-08T08:05:49.833Z,24.65
2022-12-08T08:08:57.175Z,28.55
2022-12-08T08:12:30.097Z,23.15
2022-12-08T08:15:35.559Z,24.15
2022-12-08T08:18:45.455Z,22.95
2022-12-08T08:21:53.392Z,23.55
2022-12-08T08:25:00.888Z,22.15
2022-12-08T08:28:07.795Z,20.75
2022-12-08T08:31:14.684Z,23.33
2022-12-08T08:34:20.933Z,23.80
2022-12-08T08:37:28.423Z,24.05
2022-12-08T08:40:36.339Z,21.23
2022-12-08T08:43:42.722Z,24.38
2022-12-08T08:46:51.124Z,26.20
2022-12-08T08:49:58.261Z,22.95
2022-12-08T08:53:05.420Z,24.00
2022-12-08T08:56:14.774Z,23.25
2022-12-08T08:59:20.853Z,23.50
2022-12-08T09:02:26.621Z,24.67
2022-12-08T09:05:32.307Z,22.33
2022-12-08T09:08:38.253Z,20.98
2022-12-08T09:11:44.812Z,23.08
2022-12-08T09:14:50.407Z,23.10
2022-12-08T09:17:56.990Z,26.60
2022-12-08T09:21:17.002Z,25.23
2022-12-08T09:24:23.547Z,23.45
2022-12-08T09:27:32.221Z,24.05
2022-12-08T09:30:37.927Z,26.58
2022-12-08T09:33:44.268Z,26.38
2022-12-08T09:36:49.973Z,25.42
2022-12-08T09:39:56.039Z,25.45
2022-12-08T09:43:19.922Z,31.05
2022-12-08T09:46:29.169Z,29.75
2022-12-08T09:50:07.899Z,30.70
2022-12-08T09:53:18.321Z,32.80
2022-12-08T09:56:27.704Z,30.05
2022-12-08T09:59:35.522Z,26.38
2022-12-08T10:02:47.972Z,29.25
2022-12-08T10:06:13.910Z,30.10
2022-12-08T10:09:26.253Z,29.00
2022-12-08T10:12:55.974Z,25.95
2022-12-08T10:16:31.922Z,24.40
2022-12-08T10:19:42.103Z,29.08
2022-12-08T10:22:57.505Z,28.33
2022-12-08T10:26:16.144Z,30.10
2022-12-08T10:29:21.829Z,32.50
2022-12-08T10:32:34.642Z,31.33
2022-12-08T10:35:50.591Z,33.35
2022-12-08T10:38:57.904Z,31.80
2022-12-08T10:42:21.733Z,29.13
2022-12-08T10:45:37.714Z,33.88
2022-12-08T10:49:05.018Z,33.10
2022-12-08T10:52:24.778Z,28.38
2022-12-08T10:55:41.552Z,37.63
2022-12-08T10:58:48.875Z,25.52
2022-12-08T11:01:57.640Z,31.75
2022-12-08T11:05:04.167Z,27.30
2022-12-08T11:08:12.338Z,32.00
2022-12-08T11:11:21.112Z,26.13
2022-12-08T11:17:44.346Z,30.75
2022-12-08T11:21:02.938Z,30.58
2022-12-08T11:24:30.229Z,37.53
2022-12-08T11:27:48.672Z,32.40
2022-12-08T11:31:00.758Z,31.38
2022-12-08T11:34:10.647Z,31.58
2022-12-08T11:37:29.943Z,34.33
2022-12-08T11:40:43.186Z,34.20
2022-12-08T11:44:30.174Z,40.58
2022-12-08T11:47:56.490Z,39.15
2022-12-08T11:51:33.910Z,35.47
2022-12-08T11:54:47.421Z,40.40
2022-12-08T11:57:58.055Z,44.33
2022-12-08T12:01:05.167Z,40.15
2022-12-08T12:04:41.607Z,38.63
2022-12-08T12:08:04.682Z,34.25
2022-12-08T12:12:08.190Z,37.95
2022-12-08T12:15:29.959Z,31.85
2022-12-08T12:18:46.775Z,36.53
2022-12-08T12:21:56.710Z,39.30
2022-12-08T12:25:03.584Z,33.13
2022-12-08T12:28:13.861Z,42.88
2022-12-08T12:31:25.333Z,33.80
2022-12-08T12:34:37.906Z,36.80
2022-12-08T12:37:44.046Z,38.70
2022-12-08T12:40:50.986Z,36.30
2022-12-08T12:44:13.384Z,38.70
2022-12-08T12:47:56.024Z,36.95
2022-12-08T12:51:41.469Z,37.28
2022-12-08T12:54:50.005Z,37.47
2022-12-08T12:57:58.982Z,45.38
2022-12-08T13:01:13.953Z,43.10
2022-12-08T13:04:20.678Z,40.92
2022-12-08T13:07:31.546Z,42.55
2022-12-08T13:10:49.058Z,40.63
2022-12-08T13:14:04.062Z,45.00
2022-12-08T13:17:14.198Z,42.15
2022-12-08T13:20:26.422Z,41.55
2022-12-08T13:23:38.412Z,36.88
2022-12-08T13:27:08.910Z,44.60
2022-12-08T13:31:12.392Z,47.72
2022-12-08T13:34:29.389Z,39.63
2022-12-08T13:37:54.852Z,45.58
2022-12-08T13:41:03.838Z,45.78
2022-12-08T13:48:30.186Z,51.05
2022-12-08T13:56:51.448Z,52.05
2022-12-08T13:59:25.509Z,54.63
2022-12-08T14:02:48.476Z,54.65
2022-12-08T14:06:12.068Z,56.10
2022-12-08T14:09:25.157Z,71.40
2022-12-08T14:12:33.221Z,62.03
2022-12-08T14:15:41.155Z,56.90
2022-12-08T14:18:46.829Z,59.05
2022-12-08T14:22:02.061Z,67.22
2022-12-08T14:25:14.485Z,62.45
2022-12-08T14:28:22.000Z,59.38
2022-12-08T14:31:29.747Z,59.72
2022-12-08T14:34:41.627Z,64.05
2022-12-08T14:37:55.152Z,66.87
2022-12-08T14:41:08.114Z,65.88
2022-12-08T14:44:24.494Z,65.07
2022-12-08T14:47:33.145Z,68.10
2022-12-08T14:50:42.234Z,64.72
2022-12-08T14:54:01.489Z,63.10
2022-12-08T14:57:10.860Z,66.53
2022-12-08T15:00:22.407Z,69.55
2022-12-08T15:03:32.208Z,74.68
2022-12-08T15:06:38.637Z,73.85
2022-12-08T15:09:47.739Z,71.38
2022-12-08T15:13:20.619Z,68.80
2022-12-08T15:16:29.291Z,73.00
2022-12-08T15:19:35.520Z,71.97
2022-12-08T15:22:46.307Z,75.53
2022-12-08T15:25:55.111Z,69.68
2022-12-08T15:29:30.180Z,80.53
2022-12-08T15:32:35.809Z,74.88
2022-12-08T15:35:43.828Z,70.35
2022-12-08T15:38:49.732Z,75.28
2022-12-08T15:41:56.468Z,68.93
2022-12-08T15:45:01.585Z,66.10
2022-12-08T15:48:07.878Z,70.88
2022-12-08T15:51:14.326Z,70.95
2022-12-08T15:54:19.961Z,67.22
2022-12-08T16:00:58.840Z,73.25
2022-12-08T16:05:11.587Z,68.80
2022-12-08T16:07:32.232Z,76.05
2022-12-08T16:11:10.705Z,68.05
2022-12-08T16:14:36.842Z,67.20
2022-12-08T16:17:29.953Z,72.95
2022-12-08T16:21:05.818Z,65.88
2022-12-08T16:24:08.927Z,73.68
2022-12-08T16:27:59.282Z,69.07
2022-12-08T16:30:48.544Z,64.70
2022-12-08T16:33:54.195Z,71.25
2022-12-08T16:37:00.183Z,68.32
2022-12-08T16:40:07.902Z,69.82
2022-12-08T16:43:14.773Z,64.30
2022-12-08T16:46:27.438Z,68.60
2022-12-08T16:49:33.615Z,67.03
2022-12-08T16:52:39.743Z,68.88
2022-12-08T16:55:49.707Z,68.00
2022-12-08T16:58:55.028Z,67.82
2022-12-08T17:02:00.994Z,72.93
2022-12-08T17:05:07.577Z,73.13
2022-12-08T17:08:14.386Z,69.78
2022-12-08T17:11:22.997Z,66.25
2022-12-08T17:14:29.861Z,69.78
2022-12-08T17:17:37.659Z,71.65
2022-12-08T17:20:44.566Z,73.70
2022-12-08T17:23:50.608Z,67.40
2022-12-08T17:27:00.372Z,69.65
2022-12-08T17:30:09.262Z,69.97
2022-12-08T17:33:15.339Z,79.20
2022-12-08T17:36:23.710Z,72.80
2022-12-08T17:39:29.716Z,70.20
2022-12-08T17:42:36.609Z,70.25
2022-12-08T17:45:48.513Z,64.65
2022-12-08T17:48:54.659Z,74.88
2022-12-08T17:52:03.787Z,75.50
2022-12-08T17:55:10.914Z,72.88
2022-12-08T17:58:17.257Z,71.68
2022-12-08T18:01:24.545Z,68.40
2022-12-08T18:04:32.786Z,77.80
2022-12-08T18:07:39.744Z,83.13
2022-12-08T18:10:47.279Z,79.72
2022-12-08T18:13:53.735Z,66.93
2022-12-08T18:16:59.432Z,74.70
2022-12-08T18:20:07.019Z,68.88
2022-12-08T18:23:14.177Z,76.38
2022-12-08T18:26:21.455Z,72.88
2022-12-08T18:29:26.770Z,75.10
2022-12-08T18:32:33.252Z,70.20
2022-12-08T18:35:40.706Z,74.53
2022-12-08T18:38:46.686Z,69.65
2022-12-08T18:41:53.821Z,73.68
2022-12-08T18:45:03.306Z,79.47
2022-12-08T18:48:09.219Z,73.03
2022-12-08T18:51:23.789Z,75.22
2022-12-08T18:54:49.965Z,73.47
2022-12-08T18:57:55.470Z,68.70
2022-12-08T19:01:01.112Z,66.68
2022-12-08T19:04:39.511Z,68.00
2022-12-08T19:07:36.275Z,69.25
2022-12-08T19:10:42.280Z,68.50
2022-12-08T19:13:48.162Z,64.35
2022-12-08T19:16:54.007Z,70.55
2022-12-08T19:20:00.704Z,69.40
2022-12-08T19:23:08.054Z,73.35
2022-12-08T19:26:13.898Z,71.63
2022-12-08T19:29:19.659Z,74.32
2022-12-08T19:32:26.091Z,70.40
2022-12-08T19:35:31.427Z,69.95
2022-12-08T19:38:57.980Z,70.65
2022-12-08T19:42:23.090Z,69.20
2022-12-08T19:45:29.110Z,83.55
2022-12-08T19:48:35.545Z,77.40
2022-12-08T19:51:41.708Z,89.38
2022-12-08T19:54:47.847Z,94.97
2022-12-08T19:57:57.176Z,90.85
2022-12-08T20:01:03.258Z,78.00
2022-12-08T20:04:09.192Z,83.85
2022-12-08T20:07:15.216Z,77.85
2022-12-08T20:10:25.898Z,92.20
2022-12-08T20:13:48.433Z,81.53
2022-12-08T20:16:54.659Z,78.70
2022-12-08T20:20:05.274Z,91.55
2022-12-08T20:23:14.555Z,86.95
2022-12-08T20:26:22.536Z,87.13
2022-12-08T20:29:29.133Z,77.38
2022-12-08T20:32:34.804Z,85.78
2022-12-08T20:35:40.831Z,85.20
2022-12-08T20:38:48.995Z,86.90
2022-12-08T20:41:56.558Z,78.32
2022-12-08T20:45:02.016Z,78.95
2022-12-08T20:48:07.953Z,85.50
2022-12-08T20:51:16.413Z,83.47
2022-12-08T20:54:22.385Z,80.05
2022-12-08T20:57:28.732Z,82.15
2022-12-08T21:00:35.964Z,77.80
2022-12-08T21:03:44.097Z,76.57
2022-12-08T21:06:50.927Z,83.90
2022-12-08T21:09:57.271Z,88.53
2022-12-08T21:13:03.409Z,86.03
2022-12-08T21:16:13.730Z,83.95
2022-12-08T21:19:20.835Z,86.90
2022-12-08T21:22:26.700Z,80.28
2022-12-08T21:25:33.328Z,78.43
2022-12-08T21:28:40.780Z,82.30
2022-12-08T21:31:47.024Z,86.03
2022-12-08T21:34:53.629Z,76.45
2022-12-08T21:38:01.556Z,86.05
2022-12-08T21:41:11.329Z,87.63
2022-12-08T21:44:20.636Z,83.55
2022-12-08T21:47:26.542Z,76.88
2022-12-08T21:50:32.803Z,80.00
2022-12-08T21:53:38.663Z,80.63
2022-12-08T21:56:45.712Z,83.80
2022-12-08T21:59:51.546Z,84.20
2022-12-08T22:02:58.365Z,88.18
2022-12-08T22:06:10.510Z,84.90
2022-12-08T22:12:23.277Z,78.75
2022-12-08T22:15:32.302Z,81.45
2022-12-08T22:18:38.752Z,90.22
2022-12-08T22:21:44.730Z,88.45
2022-12-08T22:24:51.188Z,78.80
2022-12-08T22:27:57.433Z,79.57
2022-12-08T22:31:14.900Z,81.47
2022-12-08T22:34:20.746Z,71.40
2022-12-08T22:37:27.435Z,78.45
2022-12-08T22:40:33.634Z,78.10
2022-12-08T22:43:40.186Z,86.72
2022-12-08T22:46:46.563Z,80.47
2022-12-08T22:49:52.996Z,77.70
2022-12-08T22:52:58.896Z,78.00
2022-12-08T22:56:10.646Z,72.53
2022-12-08T22:59:16.536Z,67.93
2022-12-08T23:02:22.540Z,73.82
2022-12-08T23:05:33.369Z,64.97
2022-12-08T23:08:40.284Z,72.88
2022-12-08T23:11:47.084Z,64.25
2022-12-08T23:14:52.783Z,80.72
2022-12-08T23:17:59.308Z,62.22
2022-12-08T23:21:08.422Z,65.93
2022-12-08T23:24:15.426Z,63.05
2022-12-08T23:27:21.103Z,57.92
2022-12-08T23:30:26.798Z,68.13
2022-12-08T23:33:32.264Z,61.95
2022-12-08T23:36:38.076Z,60.38
2022-12-08T23:39:47.041Z,56.88
2022-12-08T23:42:52.657Z,57.05
2022-12-08T23:45:58.472Z,76.07
2022-12-08T23:49:05.456Z,56.15
2022-12-08T23:52:13.800Z,55.95
2022-12-08T23:55:19.846Z,55.50
2022-12-08T23:58:25.441Z,55.55
